Time;durP1;ratioP1;P1;durP2;ratioP2;P2;SDS_P1;SDS_P2;PMS_P1;PMS_P2;Temp;Humidity;BMP_temperature;BMP_pressure;BME280_temperature;BME280_humidity;BME280_pressure;Samples;Min_cycle;Max_cycle;Signal;HPM_P1;HPM_P2
2022/05/11 00:01:29;;;;;;;;;;;13.30;83.20;;;;;;5066086;28;19969;-66
2022/05/11 00:03:58;;;;;;;;;;;13.40;83.70;;;;;;5067539;28;20528;-64
2022/05/11 00:06:25;;;;;;;;;;;13.40;81.10;;;;;;5069351;28;20405;-64
2022/05/11 00:08:51;;;;;;;;;;;13.40;81.30;;;;;;5059802;28;19947;-65
2022/05/11 00:11:17;;;;;;;;;;;13.40;81.10;;;;;;5067385;28;20698;-65
2022/05/11 00:13:43;;;;;;;;;;;13.40;81.20;;;;;;5061981;28;19920;-64
2022/05/11 00:16:09;;;;;;;;;;;13.40;80.90;;;;;;5065165;28;19943;-63
2022/05/11 00:18:34;;;;;;;;;;;13.40;81.10;;;;;;5066288;28;20369;-65
2022/05/11 00:21:00;;;;;;;;;;;13.40;80.40;;;;;;5066388;28;20019;-63
2022/05/11 00:23:25;;;;;;;;;;;13.40;81.10;;;;;;5067350;28;19927;-64
2022/05/11 00:25:51;;;;;;;;;;;13.40;80.80;;;;;;5066404;28;19917;-64
2022/05/11 00:28:16;;;;;;;;;;;13.40;81.20;;;;;;5062861;28;19920;-65
2022/05/11 00:30:42;;;;;;;;;;;13.40;81.10;;;;;;5063882;28;19916;-64
2022/05/11 00:33:10;;;;;;;;;;;13.40;81.10;;;;;;5060478;28;20417;-64
2022/05/11 00:35:36;;;;;;;;;;;13.40;81.80;;;;;;5067606;28;19920;-64
2022/05/11 00:38:02;;;;;;;;;;;13.30;80.00;;;;;;5063321;28;19974;-64
2022/05/11 00:40:28;;;;;;;;;;;13.30;79.80;;;;;;5058789;28;19950;-65
2022/05/11 00:42:53;;;;;;;;;;;13.30;79.20;;;;;;5064992;28;20039;-65
2022/05/11 00:45:19;;;;;;;;;;;13.30;79.90;;;;;;5063251;28;19970;-63
2022/05/11 00:47:50;;;;;;;;;;;13.30;79.00;;;;;;5061700;28;20007;-64
2022/05/11 00:50:18;;;;;;;;;;;13.30;78.40;;;;;;5057387;28;19923;-65
2022/05/11 00:52:46;;;;;;;;;;;13.30;78.30;;;;;;5061233;28;19920;-65
2022/05/11 00:55:15;;;;;;;;;;;13.30;79.10;;;;;;5068897;28;19920;-63
2022/05/11 00:57:44;;;;;;;;;;;13.30;79.10;;;;;;5060557;28;19970;-64
2022/05/11 01:00:11;;;;;;;;;;;13.40;78.30;;;;;;5064287;28;19974;-66
2022/05/11 01:02:37;;;;;;;;;;;13.40;79.80;;;;;;5065429;28;20003;-64
2022/05/11 01:05:04;;;;;;;;;;;13.40;78.60;;;;;;5071264;28;19916;-65
2022/05/11 01:07:31;;;;;;;;;;;13.40;79.10;;;;;;5068620;28;19916;-64
2022/05/11 01:09:56;;;;;;;;;;;13.30;78.60;;;;;;5068736;28;20470;-64
2022/05/11 01:12:25;;;;;;;;;;;13.30;78.80;;;;;;5066029;28;19973;-66
2022/05/11 01:14:54;;;;;;;;;;;13.30;78.40;;;;;;5069233;28;19971;-66
2022/05/11 01:17:20;;;;;;;;;;;13.30;79.00;;;;;;5066736;28;20010;-65
2022/05/11 01:19:47;;;;;;;;;;;13.30;79.50;;;;;;5066564;28;19985;-64
2022/05/11 01:22:31;;;;;;;;;;;13.30;79.00;;;;;;5070484;28;19963;-64
2022/05/11 01:24:56;;;;;;;;;;;13.30;79.90;;;;;;5071315;28;19916;-65
2022/05/11 01:27:44;;;;;;;;;;;13.30;80.30;;;;;;5067290;28;20260;-63
2022/05/11 01:30:10;;;;;;;;;;;13.30;79.50;;;;;;5061310;28;20284;-63
2022/05/11 01:32:36;;;;;;;;;;;13.30;79.30;;;;;;5068091;28;19933;-65
2022/05/11 01:35:10;;;;;;;;;;;13.30;79.30;;;;;;5066428;28;19947;-64
2022/05/11 01:37:38;;;;;;;;;;;13.30;80.00;;;;;;5067022;28;19924;-64
2022/05/11 01:40:04;;;;;;;;;;;13.30;80.10;;;;;;5075338;28;20026;-64
2022/05/11 01:42:29;;;;;;;;;;;13.30;80.30;;;;;;5067898;28;22148;-66
2022/05/11 01:44:55;;;;;;;;;;;13.20;80.70;;;;;;5068661;28;20003;-66
2022/05/11 01:47:20;;;;;;;;;;;13.30;80.70;;;;;;5059280;28;19923;-64
2022/05/11 01:49:46;;;;;;;;;;;13.30;80.80;;;;;;5064683;28;20277;-66
2022/05/11 01:52:11;;;;;;;;;;;13.30;79.60;;;;;;5069259;28;19947;-63
2022/05/11 01:54:37;;;;;;;;;;;13.30;80.00;;;;;;5064911;28;20356;-64
2022/05/11 01:57:02;;;;;;;;;;;13.30;79.90;;;;;;5070241;28;19924;-64
2022/05/11 01:59:28;;;;;;;;;;;13.30;80.20;;;;;;5065430;28;19928;-65
2022/05/11 02:01:54;;;;;;;;;;;13.30;80.30;;;;;;5066639;28;20427;-63
2022/05/11 02:09:47;;;;;;;;;;;13.30;79.50;;;;;;5064814;28;19917;-65
2022/05/11 02:12:13;;;;;;;;;;;13.30;79.60;;;;;;5069757;28;19920;-64
2022/05/11 02:14:39;;;;;;;;;;;13.30;80.70;;;;;;5065221;28;19925;-64
2022/05/11 02:17:05;;;;;;;;;;;13.30;79.90;;;;;;5068994;28;19920;-65
2022/05/11 02:19:31;;;;;;;;;;;13.30;79.60;;;;;;5066503;28;19916;-63
2022/05/11 02:21:56;;;;;;;;;;;13.40;80.10;;;;;;5068171;28;19997;-64
2022/05/11 02:24:23;;;;;;;;;;;13.30;79.50;;;;;;5068488;28;19946;-63
2022/05/11 02:26:48;;;;;;;;;;;13.40;81.10;;;;;;5069252;28;20223;-64
2022/05/11 02:29:14;;;;;;;;;;;13.30;81.10;;;;;;5067000;28;19917;-65
2022/05/11 02:31:39;;;;;;;;;;;13.30;81.20;;;;;;5050758;28;19948;-65
2022/05/11 02:34:06;;;;;;;;;;;13.30;81.70;;;;;;5066426;28;19920;-66
2022/05/11 02:36:33;;;;;;;;;;;13.30;81.30;;;;;;5066316;28;20244;-64
2022/05/11 02:38:58;;;;;;;;;;;13.30;81.90;;;;;;5060046;28;19951;-65
2022/05/11 02:41:24;;;;;;;;;;;13.30;81.20;;;;;;5067874;28;20355;-64
2022/05/11 02:43:50;;;;;;;;;;;13.20;81.00;;;;;;5065182;28;19920;-65
2022/05/11 02:46:15;;;;;;;;;;;13.30;82.00;;;;;;5062938;28;19920;-65
2022/05/11 02:48:41;;;;;;;;;;;13.20;82.60;;;;;;5062816;28;19924;-65
2022/05/11 02:51:07;;;;;;;;;;;13.30;82.60;;;;;;5065058;28;20362;-64
2022/05/11 02:53:33;;;;;;;;;;;13.30;82.70;;;;;;5066340;28;19920;-66
2022/05/11 02:55:59;;;;;;;;;;;13.30;81.90;;;;;;5065485;28;20368;-65
2022/05/11 02:58:26;;;;;;;;;;;13.30;82.00;;;;;;5068518;28;20245;-65
2022/05/11 03:00:52;;;;;;;;;;;13.30;82.20;;;;;;5061340;28;19920;-64
2022/05/11 03:03:18;;;;;;;;;;;13.30;81.60;;;;;;5063957;28;19924;-64
2022/05/11 03:05:44;;;;;;;;;;;13.30;81.80;;;;;;5049783;28;19962;-65
2022/05/11 03:08:10;;;;;;;;;;;13.30;82.90;;;;;;5065313;28;19920;-64
2022/05/11 03:10:36;;;;;;;;;;;13.40;83.10;;;;;;5064230;28;19931;-64
2022/05/11 03:13:02;;;;;;;;;;;13.30;83.80;;;;;;5065092;28;19916;-64
2022/05/11 03:15:28;;;;;;;;;;;13.30;82.20;;;;;;5070428;28;19916;-64
2022/05/11 03:17:54;;;;;;;;;;;13.30;82.90;;;;;;5055445;28;20280;-64
2022/05/11 03:20:22;;;;;;;;;;;13.30;83.70;;;;;;5066078;28;19916;-66
2022/05/11 03:22:48;;;;;;;;;;;13.30;83.80;;;;;;5065756;28;20046;-64
2022/05/11 03:25:14;;;;;;;;;;;13.30;84.10;;;;;;5063071;28;20415;-63
2022/05/11 03:27:39;;;;;;;;;;;13.30;83.90;;;;;;5065685;28;19927;-65
2022/05/11 03:30:05;;;;;;;;;;;13.30;83.10;;;;;;5061557;28;19921;-64
2022/05/11 03:35:15;;;;;;;;;;;13.40;83.90;;;;;;5063059;28;19924;-65
2022/05/11 03:37:41;;;;;;;;;;;13.40;83.00;;;;;;5067010;28;19921;-63
2022/05/11 03:40:08;;;;;;;;;;;13.40;82.80;;;;;;5065702;28;22807;-63
2022/05/11 03:42:33;;;;;;;;;;;13.40;83.30;;;;;;5063212;28;19928;-63
2022/05/11 03:45:06;;;;;;;;;;;13.40;83.70;;;;;;5066090;28;20372;-64
2022/05/11 03:47:32;;;;;;;;;;;13.30;83.30;;;;;;5069838;28;20319;-64
2022/05/11 03:49:57;;;;;;;;;;;13.40;83.30;;;;;;5062175;28;19924;-65
2022/05/11 03:52:23;;;;;;;;;;;13.40;83.40;;;;;;5069054;28;20287;-65
2022/05/11 03:54:48;;;;;;;;;;;13.40;82.80;;;;;;5066611;28;20010;-64
2022/05/11 03:57:14;;;;;;;;;;;13.40;83.10;;;;;;5064766;28;19920;-64
2022/05/11 03:59:39;;;;;;;;;;;13.40;83.10;;;;;;5066591;28;19924;-64
2022/05/11 04:02:05;;;;;;;;;;;13.40;83.20;;;;;;5065648;28;20371;-63
2022/05/11 04:04:31;;;;;;;;;;;13.40;82.90;;;;;;5065181;28;19960;-65
2022/05/11 04:06:56;;;;;;;;;;;13.40;83.00;;;;;;5069138;28;19955;-65
2022/05/11 04:09:22;;;;;;;;;;;13.40;82.90;;;;;;5065452;28;20166;-63
2022/05/11 04:11:47;;;;;;;;;;;13.40;82.60;;;;;;5065201;28;20264;-64
2022/05/11 04:14:13;;;;;;;;;;;13.50;82.90;;;;;;5063018;28;19920;-63
2022/05/11 04:16:38;;;;;;;;;;;13.50;82.40;;;;;;5069424;28;20382;-64
2022/05/11 04:19:04;;;;;;;;;;;13.50;82.60;;;;;;5066564;28;20271;-64
2022/05/11 04:21:29;;;;;;;;;;;13.50;82.60;;;;;;5067367;28;19924;-65
2022/05/11 04:23:54;;;;;;;;;;;13.50;82.60;;;;;;5064564;28;19995;-65
2022/05/11 04:26:20;;;;;;;;;;;13.50;82.80;;;;;;5061954;28;21581;-64
2022/05/11 04:28:45;;;;;;;;;;;13.50;82.90;;;;;;5067336;28;19951;-65
2022/05/11 04:31:12;;;;;;;;;;;13.50;82.60;;;;;;5060501;28;19917;-64
2022/05/11 04:33:38;;;;;;;;;;;13.50;81.70;;;;;;5066301;28;19942;-66
2022/05/11 04:36:04;;;;;;;;;;;13.50;82.00;;;;;;5070539;28;20375;-64
2022/05/11 04:38:29;;;;;;;;;;;13.50;82.40;;;;;;5070077;28;19916;-64
2022/05/11 04:40:55;;;;;;;;;;;13.60;82.30;;;;;;5069296;28;20257;-65
2022/05/11 04:43:20;;;;;;;;;;;13.60;81.90;;;;;;5061899;28;19998;-64
2022/05/11 04:45:46;;;;;;;;;;;13.60;81.80;;;;;;5063362;28;19920;-65
2022/05/11 04:48:13;;;;;;;;;;;13.60;81.80;;;;;;5067830;28;20055;-63
2022/05/11 04:50:42;;;;;;;;;;;13.60;82.50;;;;;;5070831;28;20010;-64
2022/05/11 04:53:07;;;;;;;;;;;13.60;82.80;;;;;;5069571;28;20278;-64
2022/05/11 04:55:33;;;;;;;;;;;13.60;83.10;;;;;;5070220;28;19920;-64
2022/05/11 04:57:59;;;;;;;;;;;13.50;83.60;;;;;;5057552;28;19927;-65
2022/05/11 05:00:25;;;;;;;;;;;13.50;83.60;;;;;;5062679;28;19924;-64
2022/05/11 05:02:51;;;;;;;;;;;13.50;84.30;;;;;;5044646;28;19917;-63
2022/05/11 05:05:17;;;;;;;;;;;13.50;84.10;;;;;;5069374;28;19924;-65
2022/05/11 05:07:42;;;;;;;;;;;13.50;83.70;;;;;;5067202;28;19924;-64
2022/05/11 05:10:09;;;;;;;;;;;13.50;84.20;;;;;;5064573;28;20371;-64
2022/05/11 05:12:34;;;;;;;;;;;13.60;83.90;;;;;;5066024;28;20791;-65
2022/05/11 05:15:00;;;;;;;;;;;13.70;83.80;;;;;;5060660;28;20026;-65
2022/05/11 05:17:26;;;;;;;;;;;13.70;83.20;;;;;;5069811;28;19930;-64
2022/05/11 05:19:51;;;;;;;;;;;13.70;83.10;;;;;;5063300;28;20094;-65
2022/05/11 05:22:17;;;;;;;;;;;13.80;83.40;;;;;;5068573;28;19920;-66
2022/05/11 05:24:43;;;;;;;;;;;13.80;83.20;;;;;;5066613;28;19924;-64
2022/05/11 05:27:12;;;;;;;;;;;13.90;83.50;;;;;;5053720;28;19924;-64
2022/05/11 05:32:22;;;;;;;;;;;14.00;82.30;;;;;;5070357;28;19916;-65
2022/05/11 05:34:48;;;;;;;;;;;14.00;82.40;;;;;;5064729;28;19936;-64
2022/05/11 05:37:14;;;;;;;;;;;14.10;82.60;;;;;;5071376;28;20485;-65
2022/05/11 05:39:40;;;;;;;;;;;14.10;81.90;;;;;;5066215;28;20009;-64
2022/05/11 05:42:06;;;;;;;;;;;14.20;81.90;;;;;;5068460;28;20340;-64
2022/05/11 05:44:32;;;;;;;;;;;14.20;81.50;;;;;;5065158;28;19916;-64
2022/05/11 05:47:04;;;;;;;;;;;14.20;81.50;;;;;;5065761;28;19916;-64
2022/05/11 05:49:30;;;;;;;;;;;14.20;80.80;;;;;;5064199;28;19924;-64
2022/05/11 05:51:57;;;;;;;;;;;14.30;81.80;;;;;;5065010;28;19922;-64
2022/05/11 05:54:22;;;;;;;;;;;14.30;81.80;;;;;;5065250;28;20161;-64
2022/05/11 05:56:48;;;;;;;;;;;14.30;81.70;;;;;;5068131;28;20461;-64
2022/05/11 05:59:14;;;;;;;;;;;14.30;81.40;;;;;;5047352;28;19928;-66
2022/05/11 06:01:40;;;;;;;;;;;14.30;81.60;;;;;;5069775;28;19916;-64
2022/05/11 06:04:05;;;;;;;;;;;14.40;81.10;;;;;;5065256;28;19917;-65
2022/05/11 06:06:31;;;;;;;;;;;14.40;81.10;;;;;;5066327;28;20364;-64
2022/05/11 06:08:56;;;;;;;;;;;14.50;81.10;;;;;;5069060;28;19917;-64
2022/05/11 06:11:22;;;;;;;;;;;14.50;80.80;;;;;;5067376;28;20682;-64
2022/05/11 06:13:47;;;;;;;;;;;14.60;80.60;;;;;;5055904;28;19916;-64
2022/05/11 06:16:14;;;;;;;;;;;14.60;80.50;;;;;;5060552;28;19925;-65
2022/05/11 06:18:41;;;;;;;;;;;14.70;80.30;;;;;;5055535;28;19988;-63
2022/05/11 06:21:07;;;;;;;;;;;14.70;80.20;;;;;;5053485;28;19920;-65
2022/05/11 06:23:33;;;;;;;;;;;14.80;79.50;;;;;;5062545;28;19982;-64
2022/05/11 06:25:58;;;;;;;;;;;14.80;79.30;;;;;;5067720;28;19916;-65
2022/05/11 06:28:23;;;;;;;;;;;14.90;78.80;;;;;;5065653;28;20283;-65
2022/05/11 06:30:49;;;;;;;;;;;15.00;79.20;;;;;;5062472;28;20008;-65
2022/05/11 06:33:14;;;;;;;;;;;15.00;78.90;;;;;;5052408;28;19924;-64
2022/05/11 06:35:40;;;;;;;;;;;15.10;78.50;;;;;;5066195;28;20382;-64
2022/05/11 06:38:07;;;;;;;;;;;15.10;77.90;;;;;;5066610;28;19978;-65
2022/05/11 06:40:33;;;;;;;;;;;15.20;77.70;;;;;;5057815;28;19920;-65
2022/05/11 06:42:58;;;;;;;;;;;15.30;76.40;;;;;;5069167;28;20023;-63
2022/05/11 06:45:24;;;;;;;;;;;15.40;75.50;;;;;;5049316;28;19999;-65
2022/05/11 06:47:49;;;;;;;;;;;15.60;75.40;;;;;;5055035;28;19924;-64
2022/05/11 06:50:15;;;;;;;;;;;15.70;74.50;;;;;;5063023;28;19947;-65
2022/05/11 06:52:41;;;;;;;;;;;15.90;74.00;;;;;;5054042;28;20268;-64
2022/05/11 07:00:35;;;;;;;;;;;16.20;70.20;;;;;;5054694;28;20035;-64
2022/05/11 07:03:01;;;;;;;;;;;16.20;70.80;;;;;;5067640;28;19995;-64
2022/05/11 07:05:28;;;;;;;;;;;16.20;70.40;;;;;;5067680;28;20366;-65
2022/05/11 07:07:54;;;;;;;;;;;16.20;70.00;;;;;;5055868;28;19924;-64
2022/05/11 07:10:20;;;;;;;;;;;16.20;69.00;;;;;;5070036;28;20363;-65
2022/05/11 07:12:48;;;;;;;;;;;16.20;69.00;;;;;;5067442;28;19982;-64
2022/05/11 07:15:18;;;;;;;;;;;16.20;68.20;;;;;;5066966;28;19955;-64
2022/05/11 07:17:52;;;;;;;;;;;16.20;68.50;;;;;;5069293;28;19920;-65
2022/05/11 07:20:20;;;;;;;;;;;16.30;68.00;;;;;;5066919;28;19924;-65
2022/05/11 07:22:45;;;;;;;;;;;16.40;67.60;;;;;;5054785;28;20048;-64
2022/05/11 07:25:12;;;;;;;;;;;16.50;67.80;;;;;;5066459;28;20356;-64
2022/05/11 07:27:38;;;;;;;;;;;16.60;67.40;;;;;;5067814;28;20011;-65
2022/05/11 07:30:05;;;;;;;;;;;16.80;65.70;;;;;;5067853;28;19999;-63
2022/05/11 07:32:30;;;;;;;;;;;16.80;65.40;;;;;;5068228;28;19916;-64
2022/05/11 07:34:56;;;;;;;;;;;16.90;65.70;;;;;;5066519;28;19938;-65
2022/05/11 07:37:21;;;;;;;;;;;16.80;65.10;;;;;;5070527;28;19973;-65
2022/05/11 07:39:47;;;;;;;;;;;16.90;65.20;;;;;;5069555;28;20007;-65
2022/05/11 07:42:13;;;;;;;;;;;16.90;65.30;;;;;;5070245;28;19927;-67
2022/05/11 07:44:38;;;;;;;;;;;16.90;65.80;;;;;;5068879;28;20662;-64
2022/05/11 07:47:04;;;;;;;;;;;17.00;65.30;;;;;;5070739;28;19951;-66
2022/05/11 07:49:30;;;;;;;;;;;17.20;64.10;;;;;;5070481;28;20292;-66
2022/05/11 07:51:55;;;;;;;;;;;17.40;64.00;;;;;;5063303;28;19921;-65
2022/05/11 07:54:21;;;;;;;;;;;17.80;63.00;;;;;;5061659;28;19923;-66
2022/05/11 08:02:16;;;;;;;;;;;17.70;60.80;;;;;;5064860;28;19939;-65
2022/05/11 08:04:41;;;;;;;;;;;17.80;61.70;;;;;;5067304;28;20283;-65
2022/05/11 08:07:08;;;;;;;;;;;17.70;61.00;;;;;;5065278;28;20038;-65
2022/05/11 08:09:33;;;;;;;;;;;17.60;61.70;;;;;;5060769;28;19924;-64
2022/05/11 08:12:00;;;;;;;;;;;17.90;61.20;;;;;;5068385;28;19916;-66
2022/05/11 08:14:26;;;;;;;;;;;18.20;59.40;;;;;;5067666;28;19924;-65
2022/05/11 08:16:55;;;;;;;;;;;18.10;59.80;;;;;;5070518;28;19939;-65
2022/05/11 08:19:24;;;;;;;;;;;18.20;58.60;;;;;;5064571;28;19920;-66
2022/05/11 08:21:51;;;;;;;;;;;18.70;57.30;;;;;;5069867;28;19916;-65
2022/05/11 08:24:16;;;;;;;;;;;19.10;56.30;;;;;;5068271;28;19916;-67
2022/05/11 08:26:43;;;;;;;;;;;19.20;55.10;;;;;;5070249;28;19962;-66
2022/05/11 08:29:09;;;;;;;;;;;19.40;55.40;;;;;;5065455;28;20341;-67
2022/05/11 08:34:18;;;;;;;;;;;20.20;53.80;;;;;;5066225;28;19924;-67
2022/05/11 08:36:47;;;;;;;;;;;20.40;51.40;;;;;;5064556;28;19920;-67
2022/05/11 08:39:13;;;;;;;;;;;20.60;51.40;;;;;;5061919;28;20680;-67
2022/05/11 08:41:49;;;;;;;;;;;20.60;51.50;;;;;;5069004;28;20011;-66
2022/05/11 08:44:16;;;;;;;;;;;20.70;50.40;;;;;;5068345;28;19916;-66
2022/05/11 08:46:43;;;;;;;;;;;20.70;49.90;;;;;;5070191;28;20257;-67
2022/05/11 08:49:08;;;;;;;;;;;20.50;51.00;;;;;;5064388;28;19917;-66
2022/05/11 08:51:53;;;;;;;;;;;20.90;49.60;;;;;;5068095;28;19917;-65
2022/05/11 08:54:34;;;;;;;;;;;21.10;50.10;;;;;;5070575;28;19924;-67
2022/05/11 08:57:01;;;;;;;;;;;21.50;50.00;;;;;;5064322;28;19924;-67
2022/05/11 08:59:28;;;;;;;;;;;21.60;48.30;;;;;;5067129;28;19924;-67
2022/05/11 09:01:58;;;;;;;;;;;21.50;47.80;;;;;;5068769;28;20352;-66
2022/05/11 09:04:28;;;;;;;;;;;21.50;48.60;;;;;;5069523;28;20006;-66
2022/05/11 09:06:54;;;;;;;;;;;21.20;48.50;;;;;;5070700;28;19916;-65
2022/05/11 09:09:19;;;;;;;;;;;20.80;49.30;;;;;;5065090;28;20068;-65
2022/05/11 09:11:48;;;;;;;;;;;20.60;49.80;;;;;;5067781;28;19927;-67
2022/05/11 09:14:18;;;;;;;;;;;20.50;49.70;;;;;;5068291;28;19916;-66
2022/05/11 09:16:48;;;;;;;;;;;20.30;49.20;;;;;;5063520;28;20469;-65
2022/05/11 09:19:23;;;;;;;;;;;20.40;49.90;;;;;;5070298;28;19958;-65
2022/05/11 09:21:54;;;;;;;;;;;20.70;49.50;;;;;;5072076;28;19916;-66
2022/05/11 09:24:25;;;;;;;;;;;21.10;49.50;;;;;;5073743;28;20382;-66
2022/05/11 09:27:11;;;;;;;;;;;21.50;48.10;;;;;;5071660;28;20296;-66
2022/05/11 09:29:39;;;;;;;;;;;22.10;47.70;;;;;;5064343;28;19916;-66
2022/05/11 09:32:19;;;;;;;;;;;23.10;44.40;;;;;;5069271;28;20419;-67
2022/05/11 09:34:44;;;;;;;;;;;24.00;44.50;;;;;;5072814;28;19916;-65
2022/05/11 09:37:27;;;;;;;;;;;23.90;40.80;;;;;;5055380;28;19920;-68
2022/05/11 09:39:55;;;;;;;;;;;24.00;41.60;;;;;;5072019;28;20304;-66
2022/05/11 09:42:26;;;;;;;;;;;24.50;39.70;;;;;;5072731;28;19916;-67
2022/05/11 09:44:53;;;;;;;;;;;24.30;40.10;;;;;;5073618;28;19916;-67
2022/05/11 09:47:28;;;;;;;;;;;23.60;41.90;;;;;;5073948;28;20295;-66
2022/05/11 09:49:55;;;;;;;;;;;23.30;42.90;;;;;;5070763;28;20345;-67
2022/05/11 09:52:27;;;;;;;;;;;23.00;42.60;;;;;;5071165;28;20121;-67
2022/05/11 09:54:53;;;;;;;;;;;23.40;43.10;;;;;;5071674;28;19916;-68
2022/05/11 09:57:20;;;;;;;;;;;23.70;42.20;;;;;;5071448;28;20480;-68
2022/05/11 09:59:49;;;;;;;;;;;24.40;41.10;;;;;;5070966;28;19920;-67
2022/05/11 10:02:23;;;;;;;;;;;25.10;38.70;;;;;;5069688;28;19932;-68
2022/05/11 10:05:03;;;;;;;;;;;24.80;39.80;;;;;;5067810;28;19923;-68
2022/05/11 10:07:32;;;;;;;;;;;26.20;38.70;;;;;;5059060;28;20371;-68
2022/05/11 10:10:00;;;;;;;;;;;26.00;37.60;;;;;;5054497;28;20272;-67
2022/05/11 10:12:28;;;;;;;;;;;25.60;37.40;;;;;;5070946;28;19924;-67
2022/05/11 10:23:10;;;;;;;;;;;26.50;35.30;;;;;;5073865;28;19916;-68
2022/05/11 10:25:40;;;;;;;;;;;27.50;35.40;;;;;;5069940;28;20344;-67
2022/05/11 10:28:08;;;;;;;;;;;28.20;34.50;;;;;;5068968;28;19920;-67
2022/05/11 10:30:47;;;;;;;;;;;28.20;32.70;;;;;;5068877;28;19962;-66
2022/05/11 10:33:12;;;;;;;;;;;27.70;34.50;;;;;;5062167;28;19916;-66
2022/05/11 10:35:50;;;;;;;;;;;26.30;33.50;;;;;;5060886;28;19927;-66
2022/05/11 10:38:18;;;;;;;;;;;25.60;34.90;;;;;;5064769;28;19962;-65
2022/05/11 10:40:50;;;;;;;;;;;25.20;34.70;;;;;;5067874;28;19939;-65
2022/05/11 10:43:34;;;;;;;;;;;23.90;36.20;;;;;;5059270;28;20010;-68
2022/05/11 10:46:22;;;;;;;;;;;23.10;38.20;;;;;;5069826;28;19916;-65
2022/05/11 10:48:48;;;;;;;;;;;22.60;39.70;;;;;;5051538;28;19924;-66
2022/05/11 10:51:40;;;;;;;;;;;22.50;41.00;;;;;;5052624;28;19928;-64
2022/05/11 10:54:12;;;;;;;;;;;22.30;40.60;;;;;;5045201;28;19923;-67
2022/05/11 10:56:52;;;;;;;;;;;21.90;40.70;;;;;;5064143;28;19928;-65
2022/05/11 10:59:31;;;;;;;;;;;22.10;41.50;;;;;;5045446;28;19928;-66
2022/05/11 11:02:00;;;;;;;;;;;22.10;40.90;;;;;;5059507;28;19976;-66
2022/05/11 11:04:46;;;;;;;;;;;21.80;41.50;;;;;;5064266;28;20634;-66
2022/05/11 11:07:20;;;;;;;;;;;22.00;42.30;;;;;;5061513;28;19916;-65
2022/05/11 11:10:04;;;;;;;;;;;22.00;41.60;;;;;;5060640;28;20391;-66
2022/05/11 11:12:31;;;;;;;;;;;21.70;41.80;;;;;;5066864;28;20376;-67
2022/05/11 11:14:58;;;;;;;;;;;21.30;43.30;;;;;;5066082;28;19920;-67
2022/05/11 11:17:25;;;;;;;;;;;21.50;44.10;;;;;;5069123;28;19958;-65
2022/05/11 11:19:52;;;;;;;;;;;21.80;43.60;;;;;;5070066;28;19923;-68
2022/05/11 11:22:18;;;;;;;;;;;22.10;43.70;;;;;;5068755;28;19920;-67
2022/05/11 11:25:03;;;;;;;;;;;21.90;43.40;;;;;;5069964;28;19917;-68
2022/05/11 11:27:58;;;;;;;;;;;22.10;42.80;;;;;;5070501;28;19962;-68
2022/05/11 11:30:24;;;;;;;;;;;21.80;43.70;;;;;;5048063;28;19920;-67
2022/05/11 11:33:15;;;;;;;;;;;21.90;44.00;;;;;;5070327;28;19923;-69
2022/05/11 11:35:41;;;;;;;;;;;21.50;43.70;;;;;;5072511;28;19924;-67
2022/05/11 11:38:06;;;;;;;;;;;21.60;43.50;;;;;;5069645;28;20344;-67
2022/05/11 11:40:33;;;;;;;;;;;21.80;43.50;;;;;;5067753;28;19916;-69
2022/05/11 11:43:38;;;;;;;;;;;21.80;43.60;;;;;;5068569;28;19995;-68
2022/05/11 11:45:47;;;;;;;;;;;22.00;42.80;;;;;;5071408;28;19916;-66
2022/05/11 11:48:25;;;;;;;;;;;22.10;42.10;;;;;;5069973;28;19942;-67
2022/05/11 11:50:58;;;;;;;;;;;22.10;42.50;;;;;;5069954;28;19924;-66
2022/05/11 11:53:40;;;;;;;;;;;22.10;42.20;;;;;;5069604;28;19970;-67
2022/05/11 11:56:32;;;;;;;;;;;22.00;43.60;;;;;;5070579;28;19962;-67
2022/05/11 11:59:03;;;;;;;;;;;22.20;43.00;;;;;;5069450;28;19956;-66
2022/05/11 12:01:30;;;;;;;;;;;22.60;42.90;;;;;;5069542;28;19930;-67
2022/05/11 12:03:57;;;;;;;;;;;22.50;41.70;;;;;;5070759;28;19924;-67
2022/05/11 12:17:26;;;;;;;;;;;22.90;40.50;;;;;;5067190;28;19990;-67
2022/05/11 12:19:58;;;;;;;;;;;23.40;39.90;;;;;;5071454;28;20439;-66
2022/05/11 12:22:25;;;;;;;;;;;24.00;39.80;;;;;;5068562;28;19963;-68
2022/05/11 12:25:09;;;;;;;;;;;23.50;40.10;;;;;;5068703;28;19955;-67
2022/05/11 12:27:35;;;;;;;;;;;24.70;40.00;;;;;;5048670;28;19916;-67
2022/05/11 12:30:22;;;;;;;;;;;25.30;38.00;;;;;;5064840;28;20308;-68
2022/05/11 12:32:49;;;;;;;;;;;24.80;36.50;;;;;;5069830;28;19916;-65
2022/05/11 12:35:18;;;;;;;;;;;25.30;36.40;;;;;;5068906;28;19924;-66
2022/05/11 12:37:43;;;;;;;;;;;26.20;35.20;;;;;;5068291;28;20322;-66
2022/05/11 12:40:14;;;;;;;;;;;27.60;33.30;;;;;;5051226;28;19920;-67
2022/05/11 12:42:44;;;;;;;;;;;28.10;32.20;;;;;;5051441;28;19938;-68
2022/05/11 12:45:11;;;;;;;;;;;29.10;30.30;;;;;;5056603;28;19943;-69
2022/05/11 12:47:44;;;;;;;;;;;28.40;30.70;;;;;;5062676;28;19921;-67
2022/05/11 12:50:28;;;;;;;;;;;29.60;32.00;;;;;;5066048;28;20008;-68
2022/05/11 12:53:05;;;;;;;;;;;30.60;29.80;;;;;;5061604;28;19917;-68
2022/05/11 12:55:33;;;;;;;;;;;31.70;28.70;;;;;;5069209;28;19923;-68
2022/05/11 12:57:59;;;;;;;;;;;29.20;29.00;;;;;;5053326;28;20023;-67
2022/05/11 13:00:26;;;;;;;;;;;29.60;30.20;;;;;;5058938;28;19999;-67
2022/05/11 13:02:52;;;;;;;;;;;30.10;29.80;;;;;;5071334;28;19928;-67
2022/05/11 13:05:19;;;;;;;;;;;28.50;29.60;;;;;;5072920;28;19920;-68
2022/05/11 13:07:44;;;;;;;;;;;28.50;30.60;;;;;;5070887;28;19923;-67
2022/05/11 13:10:14;;;;;;;;;;;29.60;30.20;;;;;;5073165;28;19920;-68
2022/05/11 13:12:40;;;;;;;;;;;31.30;29.80;;;;;;5071590;28;20021;-67
2022/05/11 13:15:06;;;;;;;;;;;31.00;29.10;;;;;;5072554;28;20383;-68
2022/05/11 13:17:46;;;;;;;;;;;32.20;28.20;;;;;;5071870;28;19924;-67
2022/05/11 13:20:17;;;;;;;;;;;32.30;27.50;;;;;;5070716;28;19930;-66
2022/05/11 13:22:48;;;;;;;;;;;31.00;27.50;;;;;;5074430;28;20379;-68
2022/05/11 13:25:34;;;;;;;;;;;29.70;28.20;;;;;;5072594;28;20007;-65
2022/05/11 13:28:22;;;;;;;;;;;29.30;28.90;;;;;;5065882;28;20301;-65
2022/05/11 13:30:48;;;;;;;;;;;28.80;30.00;;;;;;5065720;28;19920;-66
2022/05/11 13:33:29;;;;;;;;;;;30.80;29.30;;;;;;5064104;28;20272;-67
2022/05/11 13:36:09;;;;;;;;;;;30.40;28.70;;;;;;5066179;28;19924;-64
2022/05/11 13:38:34;;;;;;;;;;;30.30;27.90;;;;;;5063993;28;19920;-66
2022/05/11 13:41:02;;;;;;;;;;;28.90;28.70;;;;;;5065712;28;20311;-67
2022/05/11 13:43:31;;;;;;;;;;;29.50;29.80;;;;;;5070771;28;20395;-66
2022/05/11 13:46:05;;;;;;;;;;;29.20;30.00;;;;;;5070943;28;20007;-64
2022/05/11 13:48:39;;;;;;;;;;;29.80;28.60;;;;;;5072407;28;19916;-65
2022/05/11 13:51:07;;;;;;;;;;;30.40;29.40;;;;;;5072601;28;19955;-66
2022/05/11 13:53:34;;;;;;;;;;;31.10;28.50;;;;;;5067458;28;19924;-65
2022/05/11 13:56:06;;;;;;;;;;;30.70;28.90;;;;;;5052437;28;19924;-66
2022/05/11 13:58:41;;;;;;;;;;;29.40;28.90;;;;;;5052082;28;20341;-64
2022/05/11 14:01:09;;;;;;;;;;;29.20;28.80;;;;;;5069523;28;19947;-66
2022/05/11 14:03:40;;;;;;;;;;;29.60;29.60;;;;;;5072862;28;19916;-65
2022/05/11 14:06:08;;;;;;;;;;;29.80;29.30;;;;;;5071078;28;19916;-66
2022/05/11 14:08:34;;;;;;;;;;;29.20;30.00;;;;;;5069239;28;19920;-66
2022/05/11 14:11:00;;;;;;;;;;;27.70;31.00;;;;;;5069027;28;19916;-66
2022/05/11 14:13:26;;;;;;;;;;;29.20;31.80;;;;;;5070552;28;19916;-66
2022/05/11 14:15:51;;;;;;;;;;;28.40;30.50;;;;;;5072536;28;19943;-66
2022/05/11 14:18:20;;;;;;;;;;;26.80;32.10;;;;;;5071252;28;19951;-65
2022/05/11 14:20:46;;;;;;;;;;;26.40;33.30;;;;;;5071686;28;20035;-66
2022/05/11 14:23:11;;;;;;;;;;;25.80;34.10;;;;;;5054678;28;20002;-66
2022/05/11 14:25:37;;;;;;;;;;;25.60;35.30;;;;;;5069612;28;19917;-66
2022/05/11 14:28:02;;;;;;;;;;;25.80;35.50;;;;;;5060778;28;20096;-66
2022/05/11 14:30:28;;;;;;;;;;;24.90;36.70;;;;;;5071256;28;19969;-66
2022/05/11 14:32:53;;;;;;;;;;;24.20;37.30;;;;;;5072365;28;19935;-66
2022/05/11 14:35:24;;;;;;;;;;;23.80;37.80;;;;;;5073213;28;20368;-64
2022/05/11 14:37:50;;;;;;;;;;;23.10;39.30;;;;;;5070980;28;19930;-65
2022/05/11 14:40:18;;;;;;;;;;;22.70;40.40;;;;;;5066994;28;19927;-65
2022/05/11 14:42:44;;;;;;;;;;;22.60;41.00;;;;;;5066205;28;20007;-65
2022/05/11 14:45:10;;;;;;;;;;;22.70;41.20;;;;;;5070158;28;20023;-66
2022/05/11 14:47:37;;;;;;;;;;;22.80;42.40;;;;;;5070670;28;19916;-66
2022/05/11 14:50:03;;;;;;;;;;;22.50;41.80;;;;;;5061918;28;19927;-66
2022/05/11 14:52:28;;;;;;;;;;;22.50;41.90;;;;;;5062168;28;19923;-65
2022/05/11 14:54:54;;;;;;;;;;;22.40;42.20;;;;;;5053654;28;19920;-65
2022/05/11 15:02:49;;;;;;;;;;;22.00;42.70;;;;;;5065798;28;19923;-66
2022/05/11 15:05:15;;;;;;;;;;;22.00;43.50;;;;;;5053199;28;19920;-65
2022/05/11 15:07:41;;;;;;;;;;;21.90;43.60;;;;;;5068893;28;19963;-64
2022/05/11 15:10:07;;;;;;;;;;;22.00;44.00;;;;;;5070708;28;19933;-66
2022/05/11 15:15:17;;;;;;;;;;;22.20;43.30;;;;;;5067692;28;19920;-66